Choppington, United Kingdom
Current Conditions -  °F | °C
As of 8:20 PM on Wednesday 28 Jan 2015 (Local Time) from EGNT Reporting Station
Rain Showers Rain Showers  
Wind Chill: 22°   Ceiling: Unl
Heat Index: 34°   Visibility: 5mi
Dew Point: 30°   Wind: 21mph
Humidity: 87%   Direction: 270°W
Pressure: 29.18"   Gusts: NA
Location:  55.16°N, 1.6°W
Report Text: EGNT 282020Z 27018KT 8000 VCSH SCT015 01/M01 Q0988
Loading
Personal Weather Stations






























Interactive Weather Map New forecast layout! Learn more

10-Day Weather Forecast

Advertisements
Track Severe Weather on mobile